sensor_id;sensor_type;location;lat;lon;timestamp;temperature;humidity
6956;DHT22;50345;51.136;16.886;2023-03-01T00:02:05;-0.70;99.90
6956;DHT22;50345;51.136;16.886;2023-03-01T00:06:57;-0.70;99.90
6956;DHT22;50345;51.136;16.886;2023-03-01T00:09:23;-0.80;99.90
6956;DHT22;50345;51.136;16.886;2023-03-01T00:11:48;-0.70;99.90
6956;DHT22;50345;51.136;16.886;2023-03-01T00:14:14;-0.70;99.90
6956;DHT22;50345;51.136;16.886;2023-03-01T00:16:43;-0.70;99.90
6956;DHT22;50345;51.136;16.886;2023-03-01T00:19:14;-0.80;99.90
6956;DHT22;50345;51.136;16.886;2023-03-01T00:21:40;-0.80;99.90
6956;DHT22;50345;51.136;16.886;2023-03-01T00:24:06;-0.80;99.90
6956;DHT22;50345;51.136;16.886;2023-03-01T00:26:31;-0.80;99.90
6956;DHT22;50345;51.136;16.886;2023-03-01T00:28:58;-0.80;99.90
6956;DHT22;50345;51.136;16.886;2023-03-01T00:31:26;-0.90;99.90
6956;DHT22;50345;51.136;16.886;2023-03-01T00:33:54;-0.90;99.90
6956;DHT22;50345;51.136;16.886;2023-03-01T00:36:24;-0.90;99.90
6956;DHT22;50345;51.136;16.886;2023-03-01T00:38:50;-1.00;99.90
6956;DHT22;50345;51.136;16.886;2023-03-01T00:41:18;-1.00;99.90
6956;DHT22;50345;51.136;16.886;2023-03-01T00:43:45;-1.00;99.90
6956;DHT22;50345;51.136;16.886;2023-03-01T00:46:18;-1.10;99.90
6956;DHT22;50345;51.136;16.886;2023-03-01T00:48:45;-1.10;99.90
6956;DHT22;50345;51.136;16.886;2023-03-01T00:51:13;-1.10;99.90
6956;DHT22;50345;51.136;16.886;2023-03-01T00:53:40;-1.10;99.90
6956;DHT22;50345;51.136;16.886;2023-03-01T00:56:08;-1.10;99.90
6956;DHT22;50345;51.136;16.886;2023-03-01T00:58:34;-1.20;99.90
6956;DHT22;50345;51.136;16.886;2023-03-01T01:01:00;-1.20;99.90
6956;DHT22;50345;51.136;16.886;2023-03-01T01:03:26;-1.30;99.90
6956;DHT22;50345;51.136;16.886;2023-03-01T01:05:52;-1.30;99.90
6956;DHT22;50345;51.136;16.886;2023-03-01T01:08:19;-1.40;99.90
6956;DHT22;50345;51.136;16.886;2023-03-01T01:10:45;-1.40;99.90
6956;DHT22;50345;51.136;16.886;2023-03-01T01:13:12;-1.50;99.90
6956;DHT22;50345;51.136;16.886;2023-03-01T01:15:38;-1.50;99.90
6956;DHT22;50345;51.136;16.886;2023-03-01T01:18:04;-1.50;99.90
6956;DHT22;50345;51.136;16.886;2023-03-01T01:20:30;-1.50;99.90
6956;DHT22;50345;51.136;16.886;2023-03-01T01:22:56;-1.50;99.90
6956;DHT22;50345;51.136;16.886;2023-03-01T01:25:21;-1.60;99.90
6956;DHT22;50345;51.136;16.886;2023-03-01T01:27:50;-1.60;99.90
6956;DHT22;50345;51.136;16.886;2023-03-01T01:30:16;-1.70;99.90
6956;DHT22;50345;51.136;16.886;2023-03-01T01:32:41;-1.70;99.90
6956;DHT22;50345;51.136;16.886;2023-03-01T01:35:07;-1.70;99.90
6956;DHT22;50345;51.136;16.886;2023-03-01T01:37:33;-1.70;99.90
6956;DHT22;50345;51.136;16.886;2023-03-01T01:39:59;-1.70;99.90
6956;DHT22;50345;51.136;16.886;2023-03-01T01:42:25;-1.70;99.90
6956;DHT22;50345;51.136;16.886;2023-03-01T01:45:27;-1.70;99.90
6956;DHT22;50345;51.136;16.886;2023-03-01T01:47:55;-1.70;99.90
6956;DHT22;50345;51.136;16.886;2023-03-01T01:50:23;-1.70;99.90
6956;DHT22;50345;51.136;16.886;2023-03-01T01:52:50;-1.70;99.90
6956;DHT22;50345;51.136;16.886;2023-03-01T01:55:23;-1.70;99.90
6956;DHT22;50345;51.136;16.886;2023-03-01T01:57:57;-1.70;99.90
6956;DHT22;50345;51.136;16.886;2023-03-01T02:00:26;-1.70;99.90
6956;DHT22;50345;51.136;16.886;2023-03-01T02:03:05;-1.80;99.90
6956;DHT22;50345;51.136;16.886;2023-03-01T02:06:05;-1.80;99.90
6956;DHT22;50345;51.136;16.886;2023-03-01T02:08:36;-1.80;99.90
6956;DHT22;50345;51.136;16.886;2023-03-01T02:11:03;-1.80;99.90
6956;DHT22;50345;51.136;16.886;2023-03-01T02:13:33;-1.90;99.90
6956;DHT22;50345;51.136;16.886;2023-03-01T02:16:04;-1.90;99.90
6956;DHT22;50345;51.136;16.886;2023-03-01T02:18:30;-1.90;99.90
6956;DHT22;50345;51.136;16.886;2023-03-01T02:21:22;-2.00;99.90
6956;DHT22;50345;51.136;16.886;2023-03-01T02:23:54;-2.00;99.90
6956;DHT22;50345;51.136;16.886;2023-03-01T02:26:29;-2.10;99.90
6956;DHT22;50345;51.136;16.886;2023-03-01T02:28:58;-2.10;99.90
6956;DHT22;50345;51.136;16.886;2023-03-01T02:31:24;-2.10;99.90
6956;DHT22;50345;51.136;16.886;2023-03-01T02:34:11;-2.10;99.90
6956;DHT22;50345;51.136;16.886;2023-03-01T02:36:47;-2.10;99.90
6956;DHT22;50345;51.136;16.886;2023-03-01T02:39:15;-2.20;99.90
6956;DHT22;50345;51.136;16.886;2023-03-01T02:41:45;-2.20;99.90
6956;DHT22;50345;51.136;16.886;2023-03-01T02:44:12;-2.20;99.90
6956;DHT22;50345;51.136;16.886;2023-03-01T02:47:04;-2.20;99.90
6956;DHT22;50345;51.136;16.886;2023-03-01T02:49:33;-2.20;99.90
6956;DHT22;50345;51.136;16.886;2023-03-01T02:52:16;-2.20;99.90
6956;DHT22;50345;51.136;16.886;2023-03-01T02:57:48;-2.20;99.90
6956;DHT22;50345;51.136;16.886;2023-03-01T03:00:23;-2.20;99.90
6956;DHT22;50345;51.136;16.886;2023-03-01T03:02:52;-2.20;99.90
6956;DHT22;50345;51.136;16.886;2023-03-01T03:05:23;-2.20;99.90
6956;DHT22;50345;51.136;16.886;2023-03-01T03:07:50;-2.30;99.90
6956;DHT22;50345;51.136;16.886;2023-03-01T03:10:22;-2.30;99.90
6956;DHT22;50345;51.136;16.886;2023-03-01T03:12:53;-2.30;99.90
6956;DHT22;50345;51.136;16.886;2023-03-01T03:15:20;-2.30;99.90
6956;DHT22;50345;51.136;16.886;2023-03-01T03:17:46;-2.40;99.90
6956;DHT22;50345;51.136;16.886;2023-03-01T03:20:14;-2.40;99.90
6956;DHT22;50345;51.136;16.886;2023-03-01T03:22:45;-2.40;99.90
6956;DHT22;50345;51.136;16.886;2023-03-01T03:25:11;-2.50;99.90
6956;DHT22;50345;51.136;16.886;2023-03-01T03:27:41;-2.50;99.90
6956;DHT22;50345;51.136;16.886;2023-03-01T03:30:09;-2.50;99.90
6956;DHT22;50345;51.136;16.886;2023-03-01T03:32:38;-2.50;99.90
6956;DHT22;50345;51.136;16.886;2023-03-01T03:35:05;-2.50;99.90
6956;DHT22;50345;51.136;16.886;2023-03-01T03:37:37;-2.50;99.90
6956;DHT22;50345;51.136;16.886;2023-03-01T03:40:21;-2.50;99.90
6956;DHT22;50345;51.136;16.886;2023-03-01T03:42:47;-2.50;99.90
6956;DHT22;50345;51.136;16.886;2023-03-01T03:45:13;-2.50;99.90
6956;DHT22;50345;51.136;16.886;2023-03-01T03:47:39;-2.60;99.90
6956;DHT22;50345;51.136;16.886;2023-03-01T03:50:05;-2.60;99.90
6956;DHT22;50345;51.136;16.886;2023-03-01T03:52:30;-2.60;99.90
6956;DHT22;50345;51.136;16.886;2023-03-01T03:54:56;-2.60;99.90
6956;DHT22;50345;51.136;16.886;2023-03-01T03:57:21;-2.60;99.90
6956;DHT22;50345;51.136;16.886;2023-03-01T03:59:47;-2.60;99.90
6956;DHT22;50345;51.136;16.886;2023-03-01T04:02:12;-2.60;99.90
6956;DHT22;50345;51.136;16.886;2023-03-01T04:04:38;-2.60;99.90
6956;DHT22;50345;51.136;16.886;2023-03-01T04:07:03;-2.60;99.90
6956;DHT22;50345;51.136;16.886;2023-03-01T04:09:29;-2.70;99.90
6956;DHT22;50345;51.136;16.886;2023-03-01T04:11:55;-2.70;99.90
6956;DHT22;50345;51.136;16.886;2023-03-01T04:14:21;-2.70;99.90
6956;DHT22;50345;51.136;16.886;2023-03-01T04:16:46;-2.70;99.90
6956;DHT22;50345;51.136;16.886;2023-03-01T04:19:12;-2.70;99.90
6956;DHT22;50345;51.136;16.886;2023-03-01T04:21:37;-2.70;99.90
6956;DHT22;50345;51.136;16.886;2023-03-01T04:24:04;-2.70;99.90
6956;DHT22;50345;51.136;16.886;2023-03-01T04:26:29;-2.70;99.90
6956;DHT22;50345;51.136;16.886;2023-03-01T04:28:55;-2.70;99.90
6956;DHT22;50345;51.136;16.886;2023-03-01T04:31:21;-2.70;99.90
6956;DHT22;50345;51.136;16.886;2023-03-01T04:33:51;-2.80;99.90
6956;DHT22;50345;51.136;16.886;2023-03-01T04:36:18;-2.80;99.90
6956;DHT22;50345;51.136;16.886;2023-03-01T04:38:45;-2.80;99.90
6956;DHT22;50345;51.136;16.886;2023-03-01T04:41:13;-2.90;99.90
6956;DHT22;50345;51.136;16.886;2023-03-01T04:43:38;-2.90;99.90
6956;DHT22;50345;51.136;16.886;2023-03-01T04:46:06;-2.90;99.90
6956;DHT22;50345;51.136;16.886;2023-03-01T04:48:35;-2.90;99.90
6956;DHT22;50345;51.136;16.886;2023-03-01T04:51:01;-2.90;99.90
6956;DHT22;50345;51.136;16.886;2023-03-01T04:53:27;-2.90;99.90
6956;DHT22;50345;51.136;16.886;2023-03-01T04:55:54;-2.90;99.90
6956;DHT22;50345;51.136;16.886;2023-03-01T04:58:22;-2.90;99.90
6956;DHT22;50345;51.136;16.886;2023-03-01T05:00:48;-2.90;99.90
6956;DHT22;50345;51.136;16.886;2023-03-01T05:03:13;-2.90;99.90
6956;DHT22;50345;51.136;16.886;2023-03-01T05:05:44;-2.90;99.90
6956;DHT22;50345;51.136;16.886;2023-03-01T05:08:09;-2.90;99.90
6956;DHT22;50345;51.136;16.886;2023-03-01T05:10:46;-2.90;99.90
6956;DHT22;50345;51.136;16.886;2023-03-01T05:13:12;-3.00;99.90
6956;DHT22;50345;51.136;16.886;2023-03-01T05:15:47;-2.90;99.90
6956;DHT22;50345;51.136;16.886;2023-03-01T05:18:12;-3.00;99.90
6956;DHT22;50345;51.136;16.886;2023-03-01T05:20:38;-3.00;99.90
6956;DHT22;50345;51.136;16.886;2023-03-01T05:23:04;-3.00;99.90
6956;DHT22;50345;51.136;16.886;2023-03-01T05:25:31;-3.00;99.90
6956;DHT22;50345;51.136;16.886;2023-03-01T05:27:59;-3.00;99.90
6956;DHT22;50345;51.136;16.886;2023-03-01T05:30:28;-3.00;99.90
6956;DHT22;50345;51.136;16.886;2023-03-01T05:32:54;-3.00;99.90
6956;DHT22;50345;51.136;16.886;2023-03-01T05:35:21;-3.00;99.90
6956;DHT22;50345;51.136;16.886;2023-03-01T05:37:48;-3.00;99.90
6956;DHT22;50345;51.136;16.886;2023-03-01T05:40:16;-3.00;99.90
6956;DHT22;50345;51.136;16.886;2023-03-01T05:42:51;-3.00;99.90
6956;DHT22;50345;51.136;16.886;2023-03-01T05:45:17;-3.00;99.90
6956;DHT22;50345;51.136;16.886;2023-03-01T05:47:45;-3.00;99.90
6956;DHT22;50345;51.136;16.886;2023-03-01T05:50:13;-3.00;99.90
6956;DHT22;50345;51.136;16.886;2023-03-01T05:52:39;-2.90;99.90
6956;DHT22;50345;51.136;16.886;2023-03-01T05:55:06;-2.90;99.90
6956;DHT22;50345;51.136;16.886;2023-03-01T05:57:31;-2.90;99.90
6956;DHT22;50345;51.136;16.886;2023-03-01T05:59:57;-2.90;99.90
6956;DHT22;50345;51.136;16.886;2023-03-01T06:02:22;-2.90;99.90
6956;DHT22;50345;51.136;16.886;2023-03-01T06:04:48;-2.90;99.90
6956;DHT22;50345;51.136;16.886;2023-03-01T06:07:13;-2.80;99.90
6956;DHT22;50345;51.136;16.886;2023-03-01T06:09:39;-2.80;99.90
6956;DHT22;50345;51.136;16.886;2023-03-01T06:12:05;-2.80;99.90
6956;DHT22;50345;51.136;16.886;2023-03-01T06:14:30;-2.70;99.90
6956;DHT22;50345;51.136;16.886;2023-03-01T06:16:56;-2.70;99.90
6956;DHT22;50345;51.136;16.886;2023-03-01T06:19:22;-2.70;99.90
6956;DHT22;50345;51.136;16.886;2023-03-01T06:21:48;-2.60;99.90
6956;DHT22;50345;51.136;16.886;2023-03-01T06:24:13;-2.60;99.90
6956;DHT22;50345;51.136;16.886;2023-03-01T06:26:39;-2.50;99.90
6956;DHT22;50345;51.136;16.886;2023-03-01T06:29:04;-2.50;99.90
6956;DHT22;50345;51.136;16.886;2023-03-01T06:31:30;-2.40;99.90
6956;DHT22;50345;51.136;16.886;2023-03-01T06:33:55;-2.30;99.90
6956;DHT22;50345;51.136;16.886;2023-03-01T06:36:21;-2.30;99.90
6956;DHT22;50345;51.136;16.886;2023-03-01T06:38:47;-2.20;99.90
6956;DHT22;50345;51.136;16.886;2023-03-01T06:41:12;-2.10;99.90
6956;DHT22;50345;51.136;16.886;2023-03-01T06:43:38;-2.10;99.90
6956;DHT22;50345;51.136;16.886;2023-03-01T06:46:05;-2.00;99.90
6956;DHT22;50345;51.136;16.886;2023-03-01T06:48:32;-2.00;99.90
6956;DHT22;50345;51.136;16.886;2023-03-01T06:50:59;-1.90;99.90
6956;DHT22;50345;51.136;16.886;2023-03-01T06:53:27;-1.80;99.90
6956;DHT22;50345;51.136;16.886;2023-03-01T06:55:56;-1.80;99.90
6956;DHT22;50345;51.136;16.886;2023-03-01T06:58:22;-1.70;99.90
6956;DHT22;50345;51.136;16.886;2023-03-01T07:00:48;-1.60;99.90
6956;DHT22;50345;51.136;16.886;2023-03-01T07:03:13;-1.60;99.90
6956;DHT22;50345;51.136;16.886;2023-03-01T07:05:39;-1.50;99.90
6956;DHT22;50345;51.136;16.886;2023-03-01T07:08:05;-1.40;99.90
6956;DHT22;50345;51.136;16.886;2023-03-01T07:10:30;-1.40;99.90
6956;DHT22;50345;51.136;16.886;2023-03-01T07:15:22;-1.20;99.90
6956;DHT22;50345;51.136;16.886;2023-03-01T07:17:48;-1.10;99.90
6956;DHT22;50345;51.136;16.886;2023-03-01T07:20:17;-1.00;99.90
6956;DHT22;50345;51.136;16.886;2023-03-01T07:22:42;-0.90;99.90
6956;DHT22;50345;51.136;16.886;2023-03-01T07:25:09;-0.70;99.90
6956;DHT22;50345;51.136;16.886;2023-03-01T07:27:35;-0.60;99.90
6956;DHT22;50345;51.136;16.886;2023-03-01T07:30:02;-0.50;99.90
6956;DHT22;50345;51.136;16.886;2023-03-01T07:32:27;-0.40;99.90
6956;DHT22;50345;51.136;16.886;2023-03-01T07:34:53;-0.30;99.90
6956;DHT22;50345;51.136;16.886;2023-03-01T07:37:18;-0.20;99.90
6956;DHT22;50345;51.136;16.886;2023-03-01T07:39:44;-0.10;99.90
6956;DHT22;50345;51.136;16.886;2023-03-01T07:42:10;0.00;99.90
6956;DHT22;50345;51.136;16.886;2023-03-01T07:44:35;0.10;99.90
6956;DHT22;50345;51.136;16.886;2023-03-01T07:47:01;0.20;99.90
6956;DHT22;50345;51.136;16.886;2023-03-01T07:49:26;0.30;99.90
6956;DHT22;50345;51.136;16.886;2023-03-01T07:51:52;0.30;99.90
6956;DHT22;50345;51.136;16.886;2023-03-01T07:54:18;0.40;99.90
6956;DHT22;50345;51.136;16.886;2023-03-01T07:56:44;0.50;99.90
6956;DHT22;50345;51.136;16.886;2023-03-01T07:59:09;0.60;99.90
6956;DHT22;50345;51.136;16.886;2023-03-01T08:01:35;0.70;99.90
6956;DHT22;50345;51.136;16.886;2023-03-01T08:04:00;0.90;99.90
6956;DHT22;50345;51.136;16.886;2023-03-01T08:06:27;1.00;99.90
6956;DHT22;50345;51.136;16.886;2023-03-01T08:08:52;1.20;99.90
6956;DHT22;50345;51.136;16.886;2023-03-01T08:11:20;1.30;99.90
6956;DHT22;50345;51.136;16.886;2023-03-01T08:13:47;1.40;99.90
6956;DHT22;50345;51.136;16.886;2023-03-01T08:16:14;1.60;99.90
6956;DHT22;50345;51.136;16.886;2023-03-01T08:18:40;1.70;99.90
6956;DHT22;50345;51.136;16.886;2023-03-01T08:21:11;1.80;99.90
6956;DHT22;50345;51.136;16.886;2023-03-01T08:23:37;1.90;99.90
6956;DHT22;50345;51.136;16.886;2023-03-01T08:26:05;2.00;99.90
6956;DHT22;50345;51.136;16.886;2023-03-01T08:28:32;2.10;99.90
6956;DHT22;50345;51.136;16.886;2023-03-01T08:30:57;2.20;99.90
6956;DHT22;50345;51.136;16.886;2023-03-01T08:33:23;2.40;99.90
6956;DHT22;50345;51.136;16.886;2023-03-01T08:35:48;2.50;99.90
6956;DHT22;50345;51.136;16.886;2023-03-01T08:38:14;2.70;99.90
6956;DHT22;50345;51.136;16.886;2023-03-01T08:40:40;2.90;99.90
6956;DHT22;50345;51.136;16.886;2023-03-01T08:43:05;3.10;99.90
6956;DHT22;50345;51.136;16.886;2023-03-01T08:45:31;3.20;99.90
6956;DHT22;50345;51.136;16.886;2023-03-01T08:47:56;3.40;99.90
6956;DHT22;50345;51.136;16.886;2023-03-01T08:50:22;3.50;99.90
6956;DHT22;50345;51.136;16.886;2023-03-01T08:52:49;3.70;99.90
6956;DHT22;50345;51.136;16.886;2023-03-01T08:55:15;4.00;99.90
6956;DHT22;50345;51.136;16.886;2023-03-01T08:57:43;4.20;99.90
6956;DHT22;50345;51.136;16.886;2023-03-01T09:00:09;4.40;99.90
6956;DHT22;50345;51.136;16.886;2023-03-01T09:02:36;4.60;99.90
6956;DHT22;50345;51.136;16.886;2023-03-01T09:05:02;4.80;99.90
6956;DHT22;50345;51.136;16.886;2023-03-01T09:07:28;5.00;99.90
6956;DHT22;50345;51.136;16.886;2023-03-01T09:09:54;5.60;92.90
6956;DHT22;50345;51.136;16.886;2023-03-01T09:12:20;6.40;82.20
6956;DHT22;50345;51.136;16.886;2023-03-01T09:14:46;6.40;83.70
6956;DHT22;50345;51.136;16.886;2023-03-01T09:17:11;7.20;72.10
6956;DHT22;50345;51.136;16.886;2023-03-01T09:19:37;8.40;63.10
6956;DHT22;50345;51.136;16.886;2023-03-01T09:22:03;8.50;64.20
6956;DHT22;50345;51.136;16.886;2023-03-01T09:24:29;9.40;60.10
6956;DHT22;50345;51.136;16.886;2023-03-01T09:26:56;10.30;56.20
6956;DHT22;50345;51.136;16.886;2023-03-01T09:29:22;11.60;52.50
6956;DHT22;50345;51.136;16.886;2023-03-01T09:31:48;12.70;49.00
6956;DHT22;50345;51.136;16.886;2023-03-01T09:34:14;14.10;44.30
6956;DHT22;50345;51.136;16.886;2023-03-01T09:36:41;14.70;44.70
6956;DHT22;50345;51.136;16.886;2023-03-01T09:39:07;16.00;41.90
6956;DHT22;50345;51.136;16.886;2023-03-01T09:42:02;16.90;39.50
6956;DHT22;50345;51.136;16.886;2023-03-01T09:47:30;18.10;35.80
6956;DHT22;50345;51.136;16.886;2023-03-01T09:55:15;18.00;34.10
6956;DHT22;50345;51.136;16.886;2023-03-01T10:00:26;18.80;33.90
6956;DHT22;50345;51.136;16.886;2023-03-01T10:03:10;19.20;32.10
6956;DHT22;50345;51.136;16.886;2023-03-01T10:06:01;20.00;30.90
6956;DHT22;50345;51.136;16.886;2023-03-01T10:09:00;20.40;30.00
6956;DHT22;50345;51.136;16.886;2023-03-01T10:11:48;21.00;29.00
6956;DHT22;50345;51.136;16.886;2023-03-01T10:14:30;21.80;28.30
6956;DHT22;50345;51.136;16.886;2023-03-01T10:17:20;22.10;28.60
6956;DHT22;50345;51.136;16.886;2023-03-01T10:19:49;22.70;28.30
6956;DHT22;50345;51.136;16.886;2023-03-01T10:22:24;22.90;27.40
6956;DHT22;50345;51.136;16.886;2023-03-01T10:24:54;23.30;27.60
6956;DHT22;50345;51.136;16.886;2023-03-01T10:27:37;23.60;27.10
6956;DHT22;50345;51.136;16.886;2023-03-01T10:30:19;23.30;27.10
6956;DHT22;50345;51.136;16.886;2023-03-01T10:32:47;23.40;27.30
6956;DHT22;50345;51.136;16.886;2023-03-01T10:35:22;23.30;26.90
6956;DHT22;50345;51.136;16.886;2023-03-01T10:40:24;21.40;28.00
6956;DHT22;50345;51.136;16.886;2023-03-01T10:42:50;21.40;28.60
6956;DHT22;50345;51.136;16.886;2023-03-01T10:45:35;22.40;28.10
6956;DHT22;50345;51.136;16.886;2023-03-01T10:48:08;22.70;27.80
6956;DHT22;50345;51.136;16.886;2023-03-01T10:50:35;23.30;27.40
6956;DHT22;50345;51.136;16.886;2023-03-01T10:53:04;23.70;27.60
6956;DHT22;50345;51.136;16.886;2023-03-01T10:55:40;23.70;27.30
6956;DHT22;50345;51.136;16.886;2023-03-01T10:58:20;23.90;27.40
6956;DHT22;50345;51.136;16.886;2023-03-01T11:00:47;24.30;27.10
6956;DHT22;50345;51.136;16.886;2023-03-01T11:03:15;24.70;26.60
6956;DHT22;50345;51.136;16.886;2023-03-01T11:06:08;24.30;26.30
6956;DHT22;50345;51.136;16.886;2023-03-01T11:08:48;24.10;26.30
6956;DHT22;50345;51.136;16.886;2023-03-01T11:16:26;23.30;26.80
6956;DHT22;50345;51.136;16.886;2023-03-01T11:19:21;22.70;26.80
6956;DHT22;50345;51.136;16.886;2023-03-01T11:24:18;22.10;27.20
6956;DHT22;50345;51.136;16.886;2023-03-01T11:26:52;22.10;27.30
6956;DHT22;50345;51.136;16.886;2023-03-01T11:29:39;21.90;27.20
6956;DHT22;50345;51.136;16.886;2023-03-01T11:32:09;21.80;27.30
6956;DHT22;50345;51.136;16.886;2023-03-01T11:35:02;22.30;27.30
6956;DHT22;50345;51.136;16.886;2023-03-01T11:37:38;22.40;26.80
6956;DHT22;50345;51.136;16.886;2023-03-01T11:40:24;22.50;27.00
6956;DHT22;50345;51.136;16.886;2023-03-01T11:43:04;22.90;26.80
6956;DHT22;50345;51.136;16.886;2023-03-01T11:45:43;23.50;26.20
6956;DHT22;50345;51.136;16.886;2023-03-01T11:48:48;23.60;25.80
6956;DHT22;50345;51.136;16.886;2023-03-01T11:51:23;23.70;25.50
6956;DHT22;50345;51.136;16.886;2023-03-01T11:54:01;23.60;25.40
6956;DHT22;50345;51.136;16.886;2023-03-01T11:56:35;23.00;25.40
6956;DHT22;50345;51.136;16.886;2023-03-01T12:05:10;24.10;25.50
6956;DHT22;50345;51.136;16.886;2023-03-01T12:08:04;24.20;25.40
6956;DHT22;50345;51.136;16.886;2023-03-01T12:10:33;23.70;25.30
6956;DHT22;50345;51.136;16.886;2023-03-01T12:27:22;23.10;25.40
6956;DHT22;50345;51.136;16.886;2023-03-01T12:30:16;22.70;25.20
6956;DHT22;50345;51.136;16.886;2023-03-01T12:33:22;22.40;25.80
6956;DHT22;50345;51.136;16.886;2023-03-01T12:42:26;23.50;25.20
6956;DHT22;50345;51.136;16.886;2023-03-01T12:45:29;23.60;24.90
6956;DHT22;50345;51.136;16.886;2023-03-01T12:50:39;22.50;24.90
6956;DHT22;50345;51.136;16.886;2023-03-01T12:53:07;22.10;24.80
6956;DHT22;50345;51.136;16.886;2023-03-01T12:55:43;21.30;23.80
6956;DHT22;50345;51.136;16.886;2023-03-01T12:58:38;20.70;24.40
6956;DHT22;50345;51.136;16.886;2023-03-01T13:01:32;20.80;24.70
6956;DHT22;50345;51.136;16.886;2023-03-01T13:17:56;21.80;22.80
6956;DHT22;50345;51.136;16.886;2023-03-01T13:20:33;22.10;22.30
6956;DHT22;50345;51.136;16.886;2023-03-01T13:25:27;22.30;22.00
6956;DHT22;50345;51.136;16.886;2023-03-01T13:30:57;22.60;21.90
6956;DHT22;50345;51.136;16.886;2023-03-01T13:33:33;23.00;22.20
6956;DHT22;50345;51.136;16.886;2023-03-01T13:36:00;23.10;22.00
6956;DHT22;50345;51.136;16.886;2023-03-01T13:38:46;22.90;21.90
6956;DHT22;50345;51.136;16.886;2023-03-01T13:41:17;22.80;22.20
6956;DHT22;50345;51.136;16.886;2023-03-01T13:44:01;22.80;22.40
6956;DHT22;50345;51.136;16.886;2023-03-01T13:46:36;22.40;21.80
6956;DHT22;50345;51.136;16.886;2023-03-01T13:49:03;22.00;22.50
6956;DHT22;50345;51.136;16.886;2023-03-01T13:51:29;21.80;22.90
6956;DHT22;50345;51.136;16.886;2023-03-01T13:53:56;21.50;22.70
6956;DHT22;50345;51.136;16.886;2023-03-01T13:56:28;21.30;22.50
6956;DHT22;50345;51.136;16.886;2023-03-01T13:58:59;21.30;22.90
6956;DHT22;50345;51.136;16.886;2023-03-01T14:01:28;21.10;22.80
6956;DHT22;50345;51.136;16.886;2023-03-01T14:03:54;20.70;21.90
6956;DHT22;50345;51.136;16.886;2023-03-01T14:06:26;20.70;22.30
6956;DHT22;50345;51.136;16.886;2023-03-01T14:09:03;21.90;22.80
6956;DHT22;50345;51.136;16.886;2023-03-01T14:14:32;22.80;22.00
6956;DHT22;50345;51.136;16.886;2023-03-01T14:17:42;22.80;21.80
6956;DHT22;50345;51.136;16.886;2023-03-01T14:20:21;22.70;22.10
6956;DHT22;50345;51.136;16.886;2023-03-01T14:22:49;22.00;22.70
6956;DHT22;50345;51.136;16.886;2023-03-01T14:30:47;23.10;22.40
6956;DHT22;50345;51.136;16.886;2023-03-01T14:36:01;23.30;22.50
6956;DHT22;50345;51.136;16.886;2023-03-01T14:40:59;23.50;22.10
6956;DHT22;50345;51.136;16.886;2023-03-01T14:43:27;23.30;21.30
6956;DHT22;50345;51.136;16.886;2023-03-01T14:45:54;23.30;21.70
6956;DHT22;50345;51.136;16.886;2023-03-01T14:48:20;23.00;22.40
6956;DHT22;50345;51.136;16.886;2023-03-01T14:50:46;23.00;22.50
6956;DHT22;50345;51.136;16.886;2023-03-01T14:55:46;23.60;22.60
6956;DHT22;50345;51.136;16.886;2023-03-01T14:58:14;23.90;22.30
6956;DHT22;50345;51.136;16.886;2023-03-01T15:00:50;24.00;22.50
6956;DHT22;50345;51.136;16.886;2023-03-01T15:03:38;24.20;22.50
6956;DHT22;50345;51.136;16.886;2023-03-01T15:06:07;24.20;22.00
6956;DHT22;50345;51.136;16.886;2023-03-01T15:08:34;23.70;22.30
6956;DHT22;50345;51.136;16.886;2023-03-01T15:11:30;23.60;22.50
6956;DHT22;50345;51.136;16.886;2023-03-01T15:13:56;23.50;21.70
6956;DHT22;50345;51.136;16.886;2023-03-01T15:18:55;22.60;21.90
6956;DHT22;50345;51.136;16.886;2023-03-01T15:21:24;22.30;22.30
6956;DHT22;50345;51.136;16.886;2023-03-01T15:23:53;22.20;22.80
6956;DHT22;50345;51.136;16.886;2023-03-01T15:26:30;22.20;22.40
6956;DHT22;50345;51.136;16.886;2023-03-01T15:28:58;21.90;22.30
6956;DHT22;50345;51.136;16.886;2023-03-01T15:31:32;21.60;22.80
6956;DHT22;50345;51.136;16.886;2023-03-01T15:34:33;20.60;22.80
6956;DHT22;50345;51.136;16.886;2023-03-01T15:37:01;19.10;23.50
6956;DHT22;50345;51.136;16.886;2023-03-01T15:39:42;18.10;24.90
6956;DHT22;50345;51.136;16.886;2023-03-01T15:47:41;16.70;25.70
6956;DHT22;50345;51.136;16.886;2023-03-01T15:50:22;15.90;26.80
6956;DHT22;50345;51.136;16.886;2023-03-01T15:52:49;15.60;27.50
6956;DHT22;50345;51.136;16.886;2023-03-01T15:55:19;14.70;28.50
6956;DHT22;50345;51.136;16.886;2023-03-01T15:57:46;14.00;29.20
6956;DHT22;50345;51.136;16.886;2023-03-01T16:00:12;13.00;30.00
6956;DHT22;50345;51.136;16.886;2023-03-01T16:02:40;12.30;31.40
6956;DHT22;50345;51.136;16.886;2023-03-01T16:05:16;12.20;31.50
6956;DHT22;50345;51.136;16.886;2023-03-01T16:07:42;11.50;33.00
6956;DHT22;50345;51.136;16.886;2023-03-01T16:10:08;11.30;33.60
6956;DHT22;50345;51.136;16.886;2023-03-01T16:12:34;11.10;34.40
6956;DHT22;50345;51.136;16.886;2023-03-01T16:14:59;10.80;34.90
6956;DHT22;50345;51.136;16.886;2023-03-01T16:17:25;10.50;35.50
6956;DHT22;50345;51.136;16.886;2023-03-01T16:19:51;10.00;35.90
6956;DHT22;50345;51.136;16.886;2023-03-01T16:22:16;10.00;36.30
6956;DHT22;50345;51.136;16.886;2023-03-01T16:24:42;9.80;37.60
6956;DHT22;50345;51.136;16.886;2023-03-01T16:27:08;9.60;38.30
6956;DHT22;50345;51.136;16.886;2023-03-01T16:29:33;9.30;38.60
6956;DHT22;50345;51.136;16.886;2023-03-01T16:32:02;8.90;39.10
6956;DHT22;50345;51.136;16.886;2023-03-01T16:34:28;8.90;39.60
6956;DHT22;50345;51.136;16.886;2023-03-01T16:36:53;8.70;40.10
6956;DHT22;50345;51.136;16.886;2023-03-01T16:39:19;8.60;40.60
6956;DHT22;50345;51.136;16.886;2023-03-01T16:41:44;8.50;41.10
6956;DHT22;50345;51.136;16.886;2023-03-01T16:44:10;8.40;41.70
6956;DHT22;50345;51.136;16.886;2023-03-01T16:46:35;8.10;42.10
6956;DHT22;50345;51.136;16.886;2023-03-01T16:49:01;8.10;42.50
6956;DHT22;50345;51.136;16.886;2023-03-01T16:51:28;8.00;42.80
6956;DHT22;50345;51.136;16.886;2023-03-01T16:53:55;7.80;42.90
6956;DHT22;50345;51.136;16.886;2023-03-01T16:56:20;7.70;43.70
6956;DHT22;50345;51.136;16.886;2023-03-01T16:58:46;7.60;43.90
6956;DHT22;50345;51.136;16.886;2023-03-01T17:01:18;7.50;44.20
6956;DHT22;50345;51.136;16.886;2023-03-01T17:03:45;7.40;44.60
6956;DHT22;50345;51.136;16.886;2023-03-01T17:06:14;7.30;45.00
6956;DHT22;50345;51.136;16.886;2023-03-01T17:08:40;7.20;45.10
6956;DHT22;50345;51.136;16.886;2023-03-01T17:11:09;7.10;45.50
6956;DHT22;50345;51.136;16.886;2023-03-01T17:13:35;7.00;45.70
6956;DHT22;50345;51.136;16.886;2023-03-01T17:16:06;6.90;46.20
6956;DHT22;50345;51.136;16.886;2023-03-01T17:18:32;6.80;46.50
6956;DHT22;50345;51.136;16.886;2023-03-01T17:20:58;6.70;46.90
6956;DHT22;50345;51.136;16.886;2023-03-01T17:23:25;6.60;47.30
6956;DHT22;50345;51.136;16.886;2023-03-01T17:25:51;6.50;47.70
6956;DHT22;50345;51.136;16.886;2023-03-01T17:28:17;6.40;48.00
6956;DHT22;50345;51.136;16.886;2023-03-01T17:30:44;6.30;48.30
6956;DHT22;50345;51.136;16.886;2023-03-01T17:33:10;6.20;48.50
6956;DHT22;50345;51.136;16.886;2023-03-01T17:35:36;6.10;48.80